Weather at George Bush Intercontinental Houston Airport

Public forecast

Using degrees Fahrenheit for public forecast. Weather courtesy of forecast.io.

Current aviation weather report (METAR) for George Bush Intercontinental Houston Airport

Retrieved 2020/11/28 18:53 UTC (41 minutes ago):

KIAH 281853Z 05007KT 10SM -RA OVC006 17/15 A3008 RMK AO2 SLP185 P0000 T01670150

Aviation forecast (TAF) for George Bush Intercontinental Houston Airport

Retrieved 2020/11/28 18:27 UTC (1 hour ago):

TAF KIAH 281725Z 2818/2924 06009KT 6SM -SHRA OVC010 FM282300 08009KT 4SM BR VCSH OVC009 FM290900 01007KT 4SM SHRA OVC007 FM291200 34012KT 3SM BR VCSH OVC005 FM291500 33012KT P6SM BKN010 OVC070 FM291700 33013G21KT P6SM SCT015 SCT120